Dublin, Ireland
Current Conditions -  °F | °C
As of 5:00 AM on Sunday 23 Nov 2014 (Local Time) from EIDW Reporting Station
Broken Clouds Broken Clouds  
Wind Chill:   Ceiling: 30000
Heat Index:   Visibility: 6mi
Dew Point:   Wind: 5mph
Humidity: 93%   Direction: 220°SW
Pressure: 30.06"   Gusts: NA
Location:  53.33°N, 6.25°W
Report Text: EIDW 230500Z 22004KT 9999 FEW018 BKN300 02/01 Q1018 NOSIG
Loading
Personal Weather Stations






























Interactive Weather Map New forecast layout! Learn more

10-Day Weather Forecast

Advertisements
Track Severe Weather on mobile